Hovedside
METAR-TAF:

METAR-TAF

Lufthavner :

Funafuti internasjonale lufthavn

Funafuti, Tuvalu

breddegrad: 08-31S, lengdegrad: 179-13E, høyde over havet: 1 m

Gjeldene værobservasjon

Denne rapporten ble laget for 19 minutter siden, klokken 22:00 UTC
Vind 3 kt fra Nordøst
Temperatur 32°C
Luftfuktighet 71%
Trykk 1011 hPa
Sikt 10 km eller mer
Få skyer i en høyde av 1900 ft, Tårnskyer (cumulus).
Spredte skyer i en høyde av 31000 ft

METAR: NGFU 242200Z 05003KT 9999 FEW019TCU SCT310 32/26 Q1011

Tid: 10:19 (22:19 UTC)

Varsel

Denne rapporten ble laget for 5 timer og 1 minutter siden, klokken 17:18 UTC
Varsel gyldig fra 24. klokken 18 UTC til 25. klokken 18 UTC
Vind 3 kt fra skiftende retning
Sikt 10 km eller mer
Spredte skyer i en høyde av 2000 ft
Sannsynlighet 30% :
Midlertidig
fra 25. klokken 02 UTC til 25. klokken 06 UTC
Sikt: 5000 m
Få skyer i en høyde av 1800 ft, Bygeskyer.
torden, regn

TAF: NGFU 241718Z 2418/2518 VRB03KT 9999 SCT020 PROB30 TEMPO 2502/2506 5000 TSRA FEW018CB

Værobservasjoner og værvarsel for over 4000 flyplasser (METAR- og TAF-rapporter).

Tilgjengelige stasjoner er representert av de røde og gule prikkene på kartet.

Hold musepekeren over prikken for å se navnet på stasjonen.

Klikk så for å se værobservasjoner og -varsler.

For å forandre kartet kan du klikke på den grønne knappen med svart kryss for å zoome inn, på den grønne knappen med strek for å zoome ut, eller på de grønne pilene for å se tilstøtende kart.


METAR-TAF: